sensor_id;sensor_type;location;lat;lon;timestamp;pressure;altitude;pressure_sealevel;temperature;humidity
77250;BME280;66287;42.658;27.568;2023-03-14T00:01:59;100629.50;;;6.06;57.95
77250;BME280;66287;42.658;27.568;2023-03-14T00:04:24;100625.59;;;6.00;58.79
77250;BME280;66287;42.658;27.568;2023-03-14T00:06:50;100620.06;;;5.94;58.61
77250;BME280;66287;42.658;27.568;2023-03-14T00:09:16;100619.22;;;5.93;58.50
77250;BME280;66287;42.658;27.568;2023-03-14T00:11:41;100606.94;;;5.91;58.77
77250;BME280;66287;42.658;27.568;2023-03-14T00:14:07;100604.94;;;5.93;58.58
77250;BME280;66287;42.658;27.568;2023-03-14T00:16:32;100605.75;;;5.93;58.69
77250;BME280;66287;42.658;27.568;2023-03-14T00:18:58;100598.03;;;5.90;58.32
77250;BME280;66287;42.658;27.568;2023-03-14T00:21:24;100600.16;;;5.78;58.72
77250;BME280;66287;42.658;27.568;2023-03-14T00:23:49;100594.72;;;5.70;58.87
77250;BME280;66287;42.658;27.568;2023-03-14T00:26:16;100593.66;;;5.63;58.62
77250;BME280;66287;42.658;27.568;2023-03-14T00:28:42;100585.94;;;5.60;58.89
77250;BME280;66287;42.658;27.568;2023-03-14T00:31:08;100588.28;;;5.55;58.96
77250;BME280;66287;42.658;27.568;2023-03-14T00:33:34;100593.81;;;5.53;59.50
77250;BME280;66287;42.658;27.568;2023-03-14T00:36:03;100579.38;;;5.54;59.51
77250;BME280;66287;42.658;27.568;2023-03-14T00:38:29;100576.53;;;5.56;59.35
77250;BME280;66287;42.658;27.568;2023-03-14T00:40:55;100579.53;;;5.53;59.24
77250;BME280;66287;42.658;27.568;2023-03-14T00:43:20;100575.09;;;5.44;59.30
77250;BME280;66287;42.658;27.568;2023-03-14T00:45:49;100572.06;;;5.39;59.14
77250;BME280;66287;42.658;27.568;2023-03-14T00:48:15;100575.56;;;5.31;59.65
77250;BME280;66287;42.658;27.568;2023-03-14T00:50:41;100567.03;;;5.36;59.47
77250;BME280;66287;42.658;27.568;2023-03-14T00:53:06;100564.50;;;5.34;58.91
77250;BME280;66287;42.658;27.568;2023-03-14T00:55:35;100562.28;;;5.30;59.13
77250;BME280;66287;42.658;27.568;2023-03-14T00:58:01;100564.25;;;5.19;59.32
77250;BME280;66287;42.658;27.568;2023-03-14T01:00:26;100561.50;;;5.11;59.53
77250;BME280;66287;42.658;27.568;2023-03-14T01:02:51;100547.22;;;5.11;59.66
77250;BME280;66287;42.658;27.568;2023-03-14T01:05:17;100550.38;;;5.06;59.29
77250;BME280;66287;42.658;27.568;2023-03-14T01:07:42;100543.31;;;5.05;59.46
77250;BME280;66287;42.658;27.568;2023-03-14T01:10:08;100533.75;;;5.03;59.75
77250;BME280;66287;42.658;27.568;2023-03-14T01:12:34;100534.06;;;5.00;59.28
77250;BME280;66287;42.658;27.568;2023-03-14T01:15:01;100533.88;;;4.93;60.19
77250;BME280;66287;42.658;27.568;2023-03-14T01:17:26;100530.28;;;4.84;59.86
77250;BME280;66287;42.658;27.568;2023-03-14T01:19:52;100523.38;;;4.82;60.37
77250;BME280;66287;42.658;27.568;2023-03-14T01:22:17;100524.75;;;4.86;60.42
77250;BME280;66287;42.658;27.568;2023-03-14T01:24:43;100521.59;;;4.91;60.43
77250;BME280;66287;42.658;27.568;2023-03-14T01:27:08;100531.19;;;4.93;59.89
77250;BME280;66287;42.658;27.568;2023-03-14T01:29:34;100532.88;;;4.94;59.97
77250;BME280;66287;42.658;27.568;2023-03-14T01:31:59;100524.44;;;4.89;59.91
77250;BME280;66287;42.658;27.568;2023-03-14T01:34:25;100525.06;;;4.83;60.49
77250;BME280;66287;42.658;27.568;2023-03-14T01:36:50;100525.22;;;4.81;60.44
77250;BME280;66287;42.658;27.568;2023-03-14T01:39:17;100530.09;;;4.78;60.11
77250;BME280;66287;42.658;27.568;2023-03-14T01:41:42;100522.41;;;4.65;60.29
77250;BME280;66287;42.658;27.568;2023-03-14T01:44:11;100525.56;;;4.61;60.33
77250;BME280;66287;42.658;27.568;2023-03-14T01:46:38;100522.53;;;4.56;60.76
77250;BME280;66287;42.658;27.568;2023-03-14T01:49:09;100525.53;;;4.53;60.95
77250;BME280;66287;42.658;27.568;2023-03-14T01:56:42;100527.28;;;4.44;60.14
77250;BME280;66287;42.658;27.568;2023-03-14T01:59:09;100515.03;;;4.41;60.77
77250;BME280;66287;42.658;27.568;2023-03-14T02:01:36;100513.34;;;4.40;60.73
77250;BME280;66287;42.658;27.568;2023-03-14T02:04:02;100528.31;;;4.25;59.97
77250;BME280;66287;42.658;27.568;2023-03-14T02:06:32;100532.69;;;4.26;60.10
77250;BME280;66287;42.658;27.568;2023-03-14T02:09:00;100535.34;;;4.26;60.73
77250;BME280;66287;42.658;27.568;2023-03-14T02:11:29;100535.06;;;4.29;60.02
77250;BME280;66287;42.658;27.568;2023-03-14T02:14:08;100537.88;;;4.28;60.60
77250;BME280;66287;42.658;27.568;2023-03-14T02:17:04;100537.66;;;4.21;60.24
77250;BME280;66287;42.658;27.568;2023-03-14T02:22:33;100540.28;;;4.13;60.44
77250;BME280;66287;42.658;27.568;2023-03-14T02:27:33;100541.66;;;4.17;60.83
77250;BME280;66287;42.658;27.568;2023-03-14T02:30:00;100544.66;;;4.14;60.32
77250;BME280;66287;42.658;27.568;2023-03-14T02:32:27;100547.78;;;4.09;60.47
77250;BME280;66287;42.658;27.568;2023-03-14T02:34:55;100540.88;;;4.07;60.53
77250;BME280;66287;42.658;27.568;2023-03-14T02:37:22;100542.03;;;4.04;61.41
77250;BME280;66287;42.658;27.568;2023-03-14T02:39:48;100543.84;;;4.04;61.24
77250;BME280;66287;42.658;27.568;2023-03-14T02:42:17;100546.38;;;4.05;61.03
77250;BME280;66287;42.658;27.568;2023-03-14T02:47:43;100544.00;;;3.85;61.72
77250;BME280;66287;42.658;27.568;2023-03-14T02:50:11;100550.34;;;3.84;61.20
77250;BME280;66287;42.658;27.568;2023-03-14T02:52:37;100538.94;;;3.81;61.92
77250;BME280;66287;42.658;27.568;2023-03-14T02:55:02;100544.44;;;3.80;61.56
77250;BME280;66287;42.658;27.568;2023-03-14T02:57:29;100547.31;;;3.78;62.35
77250;BME280;66287;42.658;27.568;2023-03-14T02:59:57;100542.59;;;3.80;61.62
77250;BME280;66287;42.658;27.568;2023-03-14T03:02:23;100543.09;;;3.76;61.53
77250;BME280;66287;42.658;27.568;2023-03-14T03:04:51;100549.34;;;3.67;61.87
77250;BME280;66287;42.658;27.568;2023-03-14T03:07:16;100545.09;;;3.64;62.49
77250;BME280;66287;42.658;27.568;2023-03-14T03:09:42;100551.94;;;3.59;61.60
77250;BME280;66287;42.658;27.568;2023-03-14T03:12:07;100547.44;;;3.50;61.65
77250;BME280;66287;42.658;27.568;2023-03-14T03:14:32;100551.97;;;3.49;62.00
77250;BME280;66287;42.658;27.568;2023-03-14T03:17:01;100544.44;;;3.35;62.41
77250;BME280;66287;42.658;27.568;2023-03-14T03:19:27;100536.56;;;3.24;62.57
77250;BME280;66287;42.658;27.568;2023-03-14T03:21:52;100535.50;;;3.17;62.90
77250;BME280;66287;42.658;27.568;2023-03-14T03:24:17;100536.47;;;3.16;62.88
77250;BME280;66287;42.658;27.568;2023-03-14T03:26:43;100534.50;;;3.18;62.69
77250;BME280;66287;42.658;27.568;2023-03-14T03:29:09;100539.16;;;3.16;63.26
77250;BME280;66287;42.658;27.568;2023-03-14T03:31:36;100530.56;;;3.12;62.87
77250;BME280;66287;42.658;27.568;2023-03-14T03:34:01;100536.22;;;3.09;63.06
77250;BME280;66287;42.658;27.568;2023-03-14T03:36:27;100529.59;;;3.03;63.23
77250;BME280;66287;42.658;27.568;2023-03-14T03:38:52;100538.78;;;3.01;63.81
77250;BME280;66287;42.658;27.568;2023-03-14T03:41:18;100549.94;;;2.96;64.40
77250;BME280;66287;42.658;27.568;2023-03-14T03:43:43;100535.16;;;2.92;64.53
77250;BME280;66287;42.658;27.568;2023-03-14T03:46:11;100528.69;;;2.85;64.66
77250;BME280;66287;42.658;27.568;2023-03-14T03:48:36;100528.59;;;2.77;64.93
77250;BME280;66287;42.658;27.568;2023-03-14T03:51:03;100530.56;;;2.75;64.75
77250;BME280;66287;42.658;27.568;2023-03-14T03:53:30;100525.19;;;2.75;64.79
77250;BME280;66287;42.658;27.568;2023-03-14T03:55:55;100530.56;;;2.75;64.72
77250;BME280;66287;42.658;27.568;2023-03-14T03:58:21;100531.13;;;2.69;65.59
77250;BME280;66287;42.658;27.568;2023-03-14T04:00:47;100530.28;;;2.68;64.98
77250;BME280;66287;42.658;27.568;2023-03-14T04:03:12;100520.84;;;2.64;65.00
77250;BME280;66287;42.658;27.568;2023-03-14T04:05:37;100526.47;;;2.61;65.79
77250;BME280;66287;42.658;27.568;2023-03-14T04:08:07;100515.53;;;2.55;66.04
77250;BME280;66287;42.658;27.568;2023-03-14T04:10:35;100517.66;;;2.51;65.78
77250;BME280;66287;42.658;27.568;2023-03-14T04:13:07;100506.94;;;2.51;66.41
77250;BME280;66287;42.658;27.568;2023-03-14T04:15:34;100510.47;;;2.52;65.93
77250;BME280;66287;42.658;27.568;2023-03-14T04:18:05;100512.56;;;2.48;66.49
77250;BME280;66287;42.658;27.568;2023-03-14T04:20:33;100515.25;;;2.48;65.94
77250;BME280;66287;42.658;27.568;2023-03-14T04:22:59;100510.75;;;2.49;65.83
77250;BME280;66287;42.658;27.568;2023-03-14T04:25:25;100519.91;;;2.46;66.24
77250;BME280;66287;42.658;27.568;2023-03-14T04:27:54;100522.72;;;2.45;66.33
77250;BME280;66287;42.658;27.568;2023-03-14T04:30:25;100508.50;;;2.44;65.95
77250;BME280;66287;42.658;27.568;2023-03-14T04:32:57;100513.84;;;2.44;65.78
77250;BME280;66287;42.658;27.568;2023-03-14T04:35:24;100494.28;;;2.43;65.91
77250;BME280;66287;42.658;27.568;2023-03-14T04:37:54;100499.91;;;2.40;65.94
77250;BME280;66287;42.658;27.568;2023-03-14T04:40:20;100495.41;;;2.41;66.50
77250;BME280;66287;42.658;27.568;2023-03-14T04:42:48;100499.06;;;2.50;66.32
77250;BME280;66287;42.658;27.568;2023-03-14T04:45:14;100503.56;;;2.59;66.95
77250;BME280;66287;42.658;27.568;2023-03-14T04:47:41;100510.56;;;2.69;67.42
77250;BME280;66287;42.658;27.568;2023-03-14T04:50:09;100507.13;;;2.96;67.28
77250;BME280;66287;42.658;27.568;2023-03-14T04:52:35;100506.94;;;3.35;65.55
77250;BME280;66287;42.658;27.568;2023-03-14T04:55:01;100508.97;;;3.68;64.69
77250;BME280;66287;42.658;27.568;2023-03-14T04:57:26;100505.13;;;3.98;63.68
77250;BME280;66287;42.658;27.568;2023-03-14T04:59:52;100496.50;;;4.30;63.49
77250;BME280;66287;42.658;27.568;2023-03-14T05:02:42;100495.13;;;4.70;62.08
77250;BME280;66287;42.658;27.568;2023-03-14T05:05:34;100502.72;;;5.08;61.25
77250;BME280;66287;42.658;27.568;2023-03-14T05:08:05;100503.53;;;5.43;61.77
77250;BME280;66287;42.658;27.568;2023-03-14T05:10:55;100515.41;;;5.82;61.43
77250;BME280;66287;42.658;27.568;2023-03-14T05:13:59;100506.78;;;6.29;61.47
77250;BME280;66287;42.658;27.568;2023-03-14T05:16:44;100502.38;;;6.69;61.25
77250;BME280;66287;42.658;27.568;2023-03-14T05:19:29;100514.44;;;7.05;60.95
77250;BME280;66287;42.658;27.568;2023-03-14T05:22:12;100513.63;;;7.44;61.14
77250;BME280;66287;42.658;27.568;2023-03-14T05:24:40;100515.00;;;7.79;61.13
77250;BME280;66287;42.658;27.568;2023-03-14T05:27:24;100516.59;;;8.19;60.35
77250;BME280;66287;42.658;27.568;2023-03-14T05:30:07;100510.22;;;8.57;60.94
77250;BME280;66287;42.658;27.568;2023-03-14T05:32:53;100505.47;;;8.97;60.02
77250;BME280;66287;42.658;27.568;2023-03-14T05:35:48;100507.97;;;9.43;59.87
77250;BME280;66287;42.658;27.568;2023-03-14T05:38:30;100502.66;;;9.85;59.37
77250;BME280;66287;42.658;27.568;2023-03-14T05:41:16;100506.09;;;10.30;59.48
77250;BME280;66287;42.658;27.568;2023-03-14T05:44:05;100508.38;;;10.76;58.90
77250;BME280;66287;42.658;27.568;2023-03-14T05:46:33;100509.50;;;11.16;58.62
77250;BME280;66287;42.658;27.568;2023-03-14T05:49:34;100509.31;;;11.65;58.34
77250;BME280;66287;42.658;27.568;2023-03-14T05:52:35;100500.75;;;12.16;57.77
77250;BME280;66287;42.658;27.568;2023-03-14T05:55:07;100503.72;;;12.60;57.26
77250;BME280;66287;42.658;27.568;2023-03-14T05:57:55;100501.41;;;13.10;56.77
77250;BME280;66287;42.658;27.568;2023-03-14T06:00:39;100495.41;;;13.59;56.12
77250;BME280;66287;42.658;27.568;2023-03-14T06:03:24;100501.28;;;14.07;55.28
77250;BME280;66287;42.658;27.568;2023-03-14T06:05:51;100500.81;;;14.48;54.85
77250;BME280;66287;42.658;27.568;2023-03-14T06:08:17;100506.78;;;14.89;54.03
77250;BME280;66287;42.658;27.568;2023-03-14T06:10:43;100506.25;;;15.23;53.55
77250;BME280;66287;42.658;27.568;2023-03-14T06:13:08;100509.84;;;15.60;52.74
77250;BME280;66287;42.658;27.568;2023-03-14T06:15:34;100512.91;;;16.00;51.66
77250;BME280;66287;42.658;27.568;2023-03-14T06:18:01;100506.88;;;16.40;51.39
77250;BME280;66287;42.658;27.568;2023-03-14T06:20:26;100511.28;;;16.82;50.28
77250;BME280;66287;42.658;27.568;2023-03-14T06:22:52;100506.19;;;17.21;48.97
77250;BME280;66287;42.658;27.568;2023-03-14T06:25:18;100509.81;;;17.62;46.97
77250;BME280;66287;42.658;27.568;2023-03-14T06:27:45;100510.00;;;17.08;40.10
77250;BME280;66287;42.658;27.568;2023-03-14T06:30:12;100513.81;;;17.07;37.99
77250;BME280;66287;42.658;27.568;2023-03-14T06:32:38;100519.50;;;16.82;36.45
77250;BME280;66287;42.658;27.568;2023-03-14T06:35:07;100502.00;;;16.42;38.51
77250;BME280;66287;42.658;27.568;2023-03-14T06:37:36;100501.75;;;16.32;38.54
77250;BME280;66287;42.658;27.568;2023-03-14T06:40:02;100508.91;;;16.44;38.59
77250;BME280;66287;42.658;27.568;2023-03-14T06:42:46;100500.09;;;16.31;37.65
77250;BME280;66287;42.658;27.568;2023-03-14T06:45:13;100498.13;;;16.49;36.38
77250;BME280;66287;42.658;27.568;2023-03-14T06:47:39;100500.09;;;16.72;37.12
77250;BME280;66287;42.658;27.568;2023-03-14T06:50:06;100496.75;;;16.70;36.67
77250;BME280;66287;42.658;27.568;2023-03-14T06:52:32;100497.97;;;17.21;37.25
77250;BME280;66287;42.658;27.568;2023-03-14T06:54:58;100494.13;;;17.57;34.93
77250;BME280;66287;42.658;27.568;2023-03-14T06:57:23;100491.38;;;17.69;33.47
77250;BME280;66287;42.658;27.568;2023-03-14T06:59:49;100494.63;;;17.94;34.28
77250;BME280;66287;42.658;27.568;2023-03-14T07:02:15;100491.44;;;17.85;32.94
77250;BME280;66287;42.658;27.568;2023-03-14T07:04:42;100487.22;;;17.54;33.44
77250;BME280;66287;42.658;27.568;2023-03-14T07:07:07;100491.88;;;17.19;34.59
77250;BME280;66287;42.658;27.568;2023-03-14T07:09:34;100493.31;;;17.21;34.81
77250;BME280;66287;42.658;27.568;2023-03-14T07:12:00;100493.69;;;17.13;35.07
77250;BME280;66287;42.658;27.568;2023-03-14T07:14:25;100492.72;;;17.19;35.97
77250;BME280;66287;42.658;27.568;2023-03-14T07:16:51;100496.03;;;17.56;33.87
77250;BME280;66287;42.658;27.568;2023-03-14T07:19:16;100496.69;;;18.15;33.35
77250;BME280;66287;42.658;27.568;2023-03-14T07:21:42;100491.50;;;18.76;33.42
77250;BME280;66287;42.658;27.568;2023-03-14T07:24:10;100486.06;;;18.64;31.92
77250;BME280;66287;42.658;27.568;2023-03-14T07:26:36;100492.13;;;19.00;31.46
77250;BME280;66287;42.658;27.568;2023-03-14T07:29:01;100480.72;;;19.08;31.27
77250;BME280;66287;42.658;27.568;2023-03-14T07:31:28;100485.84;;;19.38;31.15
77250;BME280;66287;42.658;27.568;2023-03-14T07:33:54;100485.16;;;19.69;31.89
77250;BME280;66287;42.658;27.568;2023-03-14T07:36:21;100480.69;;;19.63;30.78
77250;BME280;66287;42.658;27.568;2023-03-14T07:38:46;100492.44;;;19.80;31.61
77250;BME280;66287;42.658;27.568;2023-03-14T07:41:47;100485.72;;;20.15;30.55
77250;BME280;66287;42.658;27.568;2023-03-14T07:44:44;100478.75;;;20.07;30.57
77250;BME280;66287;42.658;27.568;2023-03-14T07:47:10;100479.47;;;20.24;30.31
77250;BME280;66287;42.658;27.568;2023-03-14T07:49:35;100474.06;;;20.35;30.46
77250;BME280;66287;42.658;27.568;2023-03-14T07:52:00;100475.41;;;20.32;29.52
77250;BME280;66287;42.658;27.568;2023-03-14T07:54:26;100466.53;;;20.25;29.19
77250;BME280;66287;42.658;27.568;2023-03-14T07:56:51;100471.75;;;20.48;29.00
77250;BME280;66287;42.658;27.568;2023-03-14T07:59:17;100471.38;;;20.40;29.66
77250;BME280;66287;42.658;27.568;2023-03-14T08:01:43;100469.47;;;20.72;30.98
77250;BME280;66287;42.658;27.568;2023-03-14T08:04:08;100468.13;;;20.75;28.90
77250;BME280;66287;42.658;27.568;2023-03-14T08:06:34;100466.72;;;20.40;29.99
77250;BME280;66287;42.658;27.568;2023-03-14T08:09:00;100461.78;;;20.15;29.33
77250;BME280;66287;42.658;27.568;2023-03-14T08:11:25;100465.03;;;20.12;29.10
77250;BME280;66287;42.658;27.568;2023-03-14T08:13:50;100468.97;;;20.21;29.11
77250;BME280;66287;42.658;27.568;2023-03-14T08:16:16;100451.66;;;19.99;28.22
77250;BME280;66287;42.658;27.568;2023-03-14T08:18:42;100455.81;;;19.97;29.16
77250;BME280;66287;42.658;27.568;2023-03-14T08:21:08;100454.75;;;19.76;30.76
77250;BME280;66287;42.658;27.568;2023-03-14T08:23:33;100441.78;;;19.98;29.07
77250;BME280;66287;42.658;27.568;2023-03-14T08:25:59;100444.41;;;19.88;28.73
77250;BME280;66287;42.658;27.568;2023-03-14T08:28:24;100437.88;;;19.94;29.38
77250;BME280;66287;42.658;27.568;2023-03-14T08:30:55;100434.19;;;19.83;29.79
77250;BME280;66287;42.658;27.568;2023-03-14T08:33:21;100434.66;;;20.61;29.42
77250;BME280;66287;42.658;27.568;2023-03-14T08:35:46;100431.59;;;20.89;27.49
77250;BME280;66287;42.658;27.568;2023-03-14T08:38:11;100434.00;;;20.17;29.56
77250;BME280;66287;42.658;27.568;2023-03-14T08:40:37;100429.41;;;20.27;27.95
77250;BME280;66287;42.658;27.568;2023-03-14T09:11:12;100384.97;;;20.78;27.91
77250;BME280;66287;42.658;27.568;2023-03-14T09:13:38;100390.41;;;21.15;26.82
77250;BME280;66287;42.658;27.568;2023-03-14T09:16:03;100377.25;;;22.15;26.89
77250;BME280;66287;42.658;27.568;2023-03-14T09:18:29;100376.41;;;22.09;26.28
77250;BME280;66287;42.658;27.568;2023-03-14T09:20:55;100368.13;;;22.50;27.20
77250;BME280;66287;42.658;27.568;2023-03-14T09:23:20;100371.63;;;23.06;23.47
77250;BME280;66287;42.658;27.568;2023-03-14T09:25:46;100361.84;;;23.34;23.49
77250;BME280;66287;42.658;27.568;2023-03-14T09:28:11;100359.50;;;24.05;21.24
77250;BME280;66287;42.658;27.568;2023-03-14T09:30:37;100361.03;;;23.88;21.77
77250;BME280;66287;42.658;27.568;2023-03-14T09:33:02;100349.63;;;23.45;21.97
77250;BME280;66287;42.658;27.568;2023-03-14T09:35:28;100363.06;;;24.11;22.97
77250;BME280;66287;42.658;27.568;2023-03-14T09:37:53;100360.53;;;24.54;20.65
77250;BME280;66287;42.658;27.568;2023-03-14T09:40:19;100360.41;;;24.93;20.02
77250;BME280;66287;42.658;27.568;2023-03-14T09:42:53;100366.34;;;24.81;20.50
77250;BME280;66287;42.658;27.568;2023-03-14T09:45:29;100355.53;;;25.09;20.72
77250;BME280;66287;42.658;27.568;2023-03-14T09:47:57;100352.06;;;24.98;19.95
77250;BME280;66287;42.658;27.568;2023-03-14T09:50:22;100346.56;;;25.17;20.81
77250;BME280;66287;42.658;27.568;2023-03-14T09:52:50;100337.03;;;25.23;20.87
77250;BME280;66287;42.658;27.568;2023-03-14T09:55:20;100339.78;;;25.04;20.42
77250;BME280;66287;42.658;27.568;2023-03-14T09:57:47;100334.66;;;24.87;20.50
77250;BME280;66287;42.658;27.568;2023-03-14T10:00:15;100326.97;;;24.79;20.66
77250;BME280;66287;42.658;27.568;2023-03-14T10:02:42;100324.63;;;24.38;21.15
77250;BME280;66287;42.658;27.568;2023-03-14T10:05:13;100337.22;;;24.26;20.87
77250;BME280;66287;42.658;27.568;2023-03-14T10:07:39;100320.75;;;24.68;20.76
77250;BME280;66287;42.658;27.568;2023-03-14T10:10:09;100319.91;;;24.68;21.77
77250;BME280;66287;42.658;27.568;2023-03-14T10:12:36;100321.31;;;24.94;21.56
77250;BME280;66287;42.658;27.568;2023-03-14T10:15:03;100313.31;;;24.88;21.61
77250;BME280;66287;42.658;27.568;2023-03-14T10:17:29;100307.22;;;24.86;21.96
77250;BME280;66287;42.658;27.568;2023-03-14T10:19:56;100312.84;;;25.28;20.67
77250;BME280;66287;42.658;27.568;2023-03-14T10:22:23;100302.44;;;24.67;20.02
77250;BME280;66287;42.658;27.568;2023-03-14T10:24:51;100306.16;;;25.29;21.63
77250;BME280;66287;42.658;27.568;2023-03-14T10:27:18;100300.16;;;25.41;21.26
77250;BME280;66287;42.658;27.568;2023-03-14T10:29:51;100290.63;;;24.33;23.93
77250;BME280;66287;42.658;27.568;2023-03-14T10:32:20;100293.84;;;24.69;21.84
77250;BME280;66287;42.658;27.568;2023-03-14T10:34:46;100279.59;;;24.57;22.61
77250;BME280;66287;42.658;27.568;2023-03-14T10:37:28;100276.47;;;25.11;22.14
77250;BME280;66287;42.658;27.568;2023-03-14T10:39:54;100257.66;;;25.27;21.58
77250;BME280;66287;42.658;27.568;2023-03-14T10:42:27;100264.25;;;25.50;22.45
77250;BME280;66287;42.658;27.568;2023-03-14T10:47:51;100257.78;;;25.92;21.66
77250;BME280;66287;42.658;27.568;2023-03-14T10:50:24;100245.19;;;25.81;20.23
77250;BME280;66287;42.658;27.568;2023-03-14T10:52:51;100243.25;;;25.44;21.99
77250;BME280;66287;42.658;27.568;2023-03-14T10:55:17;100232.22;;;25.38;22.75
77250;BME280;66287;42.658;27.568;2023-03-14T10:57:42;100233.22;;;25.29;19.88
77250;BME280;66287;42.658;27.568;2023-03-14T11:00:18;100231.72;;;25.18;20.26
77250;BME280;66287;42.658;27.568;2023-03-14T11:07:54;100208.66;;;24.98;21.52
77250;BME280;66287;42.658;27.568;2023-03-14T11:10:31;100202.13;;;24.89;22.04
77250;BME280;66287;42.658;27.568;2023-03-14T11:28:50;100166.38;;;25.95;20.38
77250;BME280;66287;42.658;27.568;2023-03-14T11:31:19;100149.28;;;25.56;21.59
77250;BME280;66287;42.658;27.568;2023-03-14T11:34:05;100148.31;;;24.90;20.67
77250;BME280;66287;42.658;27.568;2023-03-14T11:36:39;100139.97;;;25.65;20.71
77250;BME280;66287;42.658;27.568;2023-03-14T11:39:13;100144.75;;;26.20;20.45
77250;BME280;66287;42.658;27.568;2023-03-14T11:41:41;67877.22;;;-144.13;20.45
77250;BME280;66287;42.658;27.568;2023-03-14T11:44:14;100133.91;;;25.45;21.51
77250;BME280;66287;42.658;27.568;2023-03-14T11:46:43;100131.78;;;25.55;20.80
77250;BME280;66287;42.658;27.568;2023-03-14T11:49:14;100127.69;;;26.67;18.86
77250;BME280;66287;42.658;27.568;2023-03-14T11:51:50;100127.28;;;26.19;18.08
77250;BME280;66287;42.658;27.568;2023-03-14T11:54:39;100119.50;;;26.85;18.29
77250;BME280;66287;42.658;27.568;2023-03-14T11:57:13;100109.41;;;27.47;17.84
77250;BME280;66287;42.658;27.568;2023-03-14T11:59:45;100107.44;;;28.01;18.54
77250;BME280;66287;42.658;27.568;2023-03-14T12:04:52;100085.06;;;29.14;17.62
77250;BME280;66287;42.658;27.568;2023-03-14T12:07:20;100089.72;;;27.66;16.91
77250;BME280;66287;42.658;27.568;2023-03-14T12:09:46;100087.09;;;27.16;18.77
77250;BME280;66287;42.658;27.568;2023-03-14T12:12:14;100081.03;;;26.64;20.31
77250;BME280;66287;42.658;27.568;2023-03-14T12:14:44;100066.50;;;28.10;19.03
77250;BME280;66287;42.658;27.568;2023-03-14T12:19:59;100062.59;;;27.80;18.70
77250;BME280;66287;42.658;27.568;2023-03-14T12:22:29;100057.78;;;28.03;18.63
77250;BME280;66287;42.658;27.568;2023-03-14T12:24:56;100060.06;;;28.01;19.36
77250;BME280;66287;42.658;27.568;2023-03-14T12:30:04;100049.41;;;28.03;19.34
77250;BME280;66287;42.658;27.568;2023-03-14T12:32:35;100046.91;;;28.32;19.07
77250;BME280;66287;42.658;27.568;2023-03-14T12:35:07;100044.13;;;28.41;18.53
77250;BME280;66287;42.658;27.568;2023-03-14T12:37:41;100042.88;;;28.73;17.93
77250;BME280;66287;42.658;27.568;2023-03-14T12:40:17;100033.66;;;27.98;18.75
77250;BME280;66287;42.658;27.568;2023-03-14T12:42:53;100031.38;;;27.92;19.07
77250;BME280;66287;42.658;27.568;2023-03-14T12:45:23;100027.31;;;27.67;19.16
77250;BME280;66287;42.658;27.568;2023-03-14T12:47:53;100025.00;;;27.60;19.32
77250;BME280;66287;42.658;27.568;2023-03-14T12:50:20;100015.75;;;26.62;19.76
77250;BME280;66287;42.658;27.568;2023-03-14T12:55:29;100014.59;;;26.27;20.25
77250;BME280;66287;42.658;27.568;2023-03-14T13:00:31;100011.22;;;26.16;20.98
77250;BME280;66287;42.658;27.568;2023-03-14T13:08:40;100004.03;;;25.14;22.66
77250;BME280;66287;42.658;27.568;2023-03-14T13:11:08;99998.59;;;25.09;22.23
77250;BME280;66287;42.658;27.568;2023-03-14T13:13:34;100003.94;;;25.19;22.72
77250;BME280;66287;42.658;27.568;2023-03-14T13:16:01;99993.72;;;25.33;22.48
77250;BME280;66287;42.658;27.568;2023-03-14T13:20:55;99995.59;;;24.87;23.53
77250;BME280;66287;42.658;27.568;2023-03-14T13:23:34;99989.56;;;24.47;23.34
77250;BME280;66287;42.658;27.568;2023-03-14T13:26:00;99985.97;;;24.28;24.38
77250;BME280;66287;42.658;27.568;2023-03-14T13:28:26;99983.28;;;24.42;23.56
77250;BME280;66287;42.658;27.568;2023-03-14T13:30:59;99980.25;;;24.19;23.80
77250;BME280;66287;42.658;27.568;2023-03-14T13:33:25;99980.09;;;23.68;25.34
77250;BME280;66287;42.658;27.568;2023-03-14T13:35:55;99966.84;;;23.12;25.88
77250;BME280;66287;42.658;27.568;2023-03-14T13:38:22;99973.13;;;22.55;26.57
77250;BME280;66287;42.658;27.568;2023-03-14T13:40:48;99975.06;;;22.10;27.23
77250;BME280;66287;42.658;27.568;2023-03-14T13:46:22;99968.47;;;22.01;27.46
77250;BME280;66287;42.658;27.568;2023-03-14T13:51:19;99940.91;;;21.86;27.87
77250;BME280;66287;42.658;27.568;2023-03-14T13:53:49;99948.78;;;21.53;28.43
77250;BME280;66287;42.658;27.568;2023-03-14T13:56:15;99944.03;;;21.69;28.33
77250;BME280;66287;42.658;27.568;2023-03-14T13:58:41;99939.06;;;21.71;27.98
77250;BME280;66287;42.658;27.568;2023-03-14T14:01:23;99924.16;;;21.72;28.06
77250;BME280;66287;42.658;27.568;2023-03-14T14:03:49;99927.22;;;21.65;28.74
77250;BME280;66287;42.658;27.568;2023-03-14T14:06:29;99922.41;;;21.32;29.06
77250;BME280;66287;42.658;27.568;2023-03-14T14:08:55;99918.06;;;20.75;30.51
77250;BME280;66287;42.658;27.568;2023-03-14T14:11:24;99914.22;;;20.51;29.67
77250;BME280;66287;42.658;27.568;2023-03-14T14:13:53;99919.09;;;20.08;31.15
77250;BME280;66287;42.658;27.568;2023-03-14T14:16:20;99914.84;;;19.65;30.95
77250;BME280;66287;42.658;27.568;2023-03-14T14:18:47;99917.31;;;19.56;32.14
77250;BME280;66287;42.658;27.568;2023-03-14T14:21:13;99909.75;;;19.32;32.72
77250;BME280;66287;42.658;27.568;2023-03-14T14:23:38;99902.88;;;19.34;32.71
77250;BME280;66287;42.658;27.568;2023-03-14T14:26:04;99894.84;;;19.17;32.90
77250;BME280;66287;42.658;27.568;2023-03-14T14:28:31;99892.66;;;19.87;32.36